Time;durP1;ratioP1;P1;durP2;ratioP2;P2;SDS_P1;SDS_P2;PMS_P1;PMS_P2;Temp;Humidity;BMP_temperature;BMP_pressure;BME280_temperature;BME280_humidity;BME280_pressure;Samples;Min_cycle;Max_cycle;Signal;HPM_P1;HPM_P2
2023/05/11 00:00:08;;;;;;;14.65;10.57;;;12.60;99.90;;;;;;5003915;28;20046;-74
2023/05/11 00:02:34;;;;;;;15.52;11.00;;;12.60;99.90;;;;;;5002674;28;20092;-75
2023/05/11 00:05:00;;;;;;;15.32;10.98;;;12.60;99.90;;;;;;4998487;28;20046;-74
2023/05/11 00:07:26;;;;;;;14.45;10.93;;;12.60;99.90;;;;;;4994655;28;20056;-74
2023/05/11 00:09:51;;;;;;;14.57;10.82;;;12.60;99.90;;;;;;5001280;28;20069;-74
2023/05/11 00:12:17;;;;;;;15.15;11.05;;;12.60;99.90;;;;;;4993641;28;20048;-74
2023/05/11 00:14:42;;;;;;;17.77;11.45;;;12.60;99.90;;;;;;4994215;28;20034;-78
2023/05/11 00:17:09;;;;;;;15.45;10.65;;;12.70;99.90;;;;;;4995937;28;20038;-75
2023/05/11 00:19:35;;;;;;;15.48;11.10;;;12.60;99.90;;;;;;4986899;28;20083;-74
2023/05/11 00:22:00;;;;;;;14.57;11.20;;;12.50;99.90;;;;;;4995440;28;20050;-74
2023/05/11 00:24:26;;;;;;;15.25;10.68;;;12.60;99.90;;;;;;4990100;28;20038;-75
2023/05/11 00:26:51;;;;;;;14.63;11.15;;;12.60;99.90;;;;;;4979149;28;20111;-75
2023/05/11 00:29:17;;;;;;;15.48;11.05;;;12.50;99.90;;;;;;4994277;28;20084;-74
2023/05/11 00:31:46;;;;;;;15.05;10.57;;;12.50;99.90;;;;;;4993553;28;20046;-75
2023/05/11 00:34:17;;;;;;;14.82;11.57;;;12.50;99.90;;;;;;5001581;28;20048;-74
2023/05/11 00:36:44;;;;;;;16.58;11.15;;;12.50;99.90;;;;;;4992291;28;20042;-75
2023/05/11 00:39:10;;;;;;;16.27;11.43;;;12.50;99.90;;;;;;4986283;28;20135;-75
2023/05/11 00:41:36;;;;;;;16.30;11.75;;;12.50;99.90;;;;;;4998255;28;20505;-74
2023/05/11 00:44:02;;;;;;;15.75;11.38;;;12.50;99.90;;;;;;5003584;28;20053;-74
2023/05/11 00:46:27;;;;;;;16.95;12.30;;;12.50;99.90;;;;;;4995690;28;20053;-75
2023/05/11 00:48:53;;;;;;;15.48;11.60;;;12.50;99.90;;;;;;5003914;28;20044;-74
2023/05/11 00:51:20;;;;;;;16.55;11.65;;;12.50;99.90;;;;;;5002683;28;20125;-75
2023/05/11 00:53:46;;;;;;;16.83;11.85;;;12.50;99.90;;;;;;4992832;28;20512;-74
2023/05/11 00:56:12;;;;;;;16.55;11.98;;;12.50;99.90;;;;;;4997688;28;20434;-74
2023/05/11 00:58:38;;;;;;;18.10;12.77;;;12.50;99.90;;;;;;4994152;28;20451;-75
2023/05/11 01:01:03;;;;;;;18.02;11.95;;;12.50;99.90;;;;;;4996729;28;20397;-75
2023/05/11 01:03:33;;;;;;;19.25;12.70;;;12.50;99.90;;;;;;5000228;28;20042;-75
2023/05/11 01:06:15;;;;;;;17.10;12.13;;;12.50;99.90;;;;;;4997003;28;20412;-74
2023/05/11 01:08:53;;;;;;;17.92;12.73;;;12.40;99.90;;;;;;4993594;28;20050;-74
2023/05/11 01:11:36;;;;;;;18.10;12.25;;;12.40;99.90;;;;;;4993324;28;20126;-74
2023/05/11 01:14:16;;;;;;;19.42;13.13;;;12.40;99.90;;;;;;4986422;28;20112;-76
2023/05/11 01:16:45;;;;;;;17.80;12.77;;;12.40;99.90;;;;;;4993388;28;20047;-74
2023/05/11 01:19:40;;;;;;;17.70;12.68;;;12.40;99.90;;;;;;4997666;28;20137;-74
2023/05/11 01:22:29;;;;;;;18.77;12.60;;;12.40;99.90;;;;;;4994101;28;20045;-74
2023/05/11 01:25:13;;;;;;;19.70;13.15;;;12.40;99.90;;;;;;4975956;28;20453;-74
2023/05/11 01:28:06;;;;;;;19.30;12.80;;;12.40;99.90;;;;;;4982964;28;20050;-74
2023/05/11 01:30:48;;;;;;;21.30;12.95;;;12.40;99.90;;;;;;4990580;28;20046;-75
2023/05/11 01:33:15;;;;;;;18.13;13.20;;;12.40;99.90;;;;;;4994032;28;20053;-74
2023/05/11 01:35:47;;;;;;;18.83;13.32;;;12.40;99.90;;;;;;5000453;28;20091;-75
2023/05/11 01:38:14;;;;;;;17.75;12.75;;;12.40;99.90;;;;;;5007384;28;20065;-75
2023/05/11 01:40:41;;;;;;;18.00;12.40;;;12.40;99.90;;;;;;4997952;28;20405;-74
2023/05/11 01:43:11;;;;;;;19.15;13.13;;;12.40;99.90;;;;;;5001945;28;20041;-75
2023/05/11 01:45:44;;;;;;;19.15;13.80;;;12.40;99.90;;;;;;4994396;28;20128;-74
2023/05/11 01:48:11;;;;;;;;;;;12.40;99.90;;;;;;4996674;28;20038;-75
2023/05/11 01:50:38;;;;;;;18.00;13.05;;;12.40;99.90;;;;;;4994764;28;19964;-75
2023/05/11 01:53:05;;;;;;;18.85;12.70;;;12.40;99.90;;;;;;5003316;28;20397;-75
2023/05/11 01:55:34;;;;;;;18.27;12.73;;;12.40;99.90;;;;;;4993850;28;20241;-74
2023/05/11 01:58:00;;;;;;;18.10;12.93;;;12.40;99.90;;;;;;4988116;28;20461;-74
2023/05/11 02:00:26;;;;;;;17.20;12.80;;;12.40;99.90;;;;;;5003768;28;20136;-74
2023/05/11 02:02:53;;;;;;;19.92;13.70;;;12.40;99.90;;;;;;5000689;28;20068;-74
2023/05/11 02:05:22;;;;;;;17.70;13.20;;;12.40;99.90;;;;;;4992640;28;20084;-75
2023/05/11 02:07:53;;;;;;;19.27;13.07;;;12.40;99.90;;;;;;4992609;28;20049;-74
2023/05/11 02:10:19;;;;;;;18.77;13.35;;;12.40;99.90;;;;;;5003015;28;20046;-74
2023/05/11 02:12:47;;;;;;;21.67;13.73;;;12.40;99.90;;;;;;5001047;28;20068;-74
2023/05/11 02:15:14;;;;;;;20.90;14.32;;;12.40;99.90;;;;;;5009301;28;20375;-74
2023/05/11 02:17:41;;;;;;;19.33;14.38;;;12.40;99.90;;;;;;4976635;28;20038;-74
2023/05/11 02:20:08;;;;;;;21.90;14.00;;;12.40;99.90;;;;;;4985727;28;20046;-74
2023/05/11 02:22:34;;;;;;;19.55;13.77;;;12.40;99.90;;;;;;5004052;28;20054;-75
2023/05/11 02:25:00;;;;;;;19.50;14.13;;;12.40;99.90;;;;;;4998453;28;20104;-74
2023/05/11 02:27:26;;;;;;;19.35;13.82;;;12.40;99.90;;;;;;4997080;28;20068;-74
2023/05/11 02:29:52;;;;;;;18.95;13.23;;;12.40;99.90;;;;;;4996093;28;20053;-75
2023/05/11 02:32:21;;;;;;;20.73;14.23;;;12.40;99.90;;;;;;4991473;28;20042;-75
2023/05/11 02:35:00;;;;;;;21.33;13.60;;;12.40;99.90;;;;;;5002501;28;20379;-74
2023/05/11 02:37:29;;;;;;;20.10;13.65;;;12.40;99.90;;;;;;4991048;28;20049;-76
2023/05/11 02:40:02;;;;;;;18.88;14.43;;;12.40;99.90;;;;;;5002334;28;20049;-74
2023/05/11 02:42:29;;;;;;;20.17;14.15;;;13.40;99.90;;;;;;4998522;28;20053;-74
2023/05/11 02:44:57;;;;;;;22.00;14.52;;;12.40;99.90;;;;;;5000960;28;20041;-74
2023/05/11 02:47:27;;;;;;;23.70;15.32;;;12.40;99.90;;;;;;5011664;28;20038;-74
2023/05/11 02:49:56;;;;;;;22.63;15.23;;;12.30;99.90;;;;;;4996389;28;20060;-74
2023/05/11 02:52:24;;;;;;;19.95;14.70;;;12.40;99.90;;;;;;5012672;28;20050;-74
2023/05/11 02:54:51;;;;;;;23.80;15.27;;;12.40;99.90;;;;;;4996034;28;20033;-74
2023/05/11 02:57:17;;;;;;;23.92;14.43;;;12.40;99.90;;;;;;5010075;28;20096;-75
2023/05/11 02:59:44;;;;;;;21.33;14.77;;;12.40;99.90;;;;;;5004140;28;20037;-75
2023/05/11 03:02:11;;;;;;;22.35;15.07;;;12.40;99.90;;;;;;4999362;28;20125;-74
2023/05/11 03:04:38;;;;;;;22.08;15.70;;;12.40;99.90;;;;;;4990226;28;20081;-76
2023/05/11 03:07:05;;;;;;;22.17;14.38;;;12.40;99.90;;;;;;5004024;28;20136;-74
2023/05/11 03:09:30;;;;;;;25.90;15.70;;;12.60;99.90;;;;;;4992496;28;20042;-74
2023/05/11 03:11:57;;;;;;;20.38;15.25;;;12.40;99.90;;;;;;4996260;28;20034;-74
2023/05/11 03:14:25;;;;;;;20.65;14.05;;;12.40;99.90;;;;;;5026310;22;20046;-78
2023/05/11 03:16:52;;;;;;;20.83;14.07;;;12.40;99.90;;;;;;5025652;28;20311;-81
2023/05/11 03:19:23;;;;;;;21.15;14.45;;;12.30;99.90;;;;;;5019223;28;20041;-81
2023/05/11 03:21:57;;;;;;;22.67;14.43;;;13.10;99.90;;;;;;5006970;28;20060;-81
2023/05/11 03:24:26;;;;;;;21.50;14.98;;;12.30;99.90;;;;;;5022505;28;20033;-81
2023/05/11 03:26:58;;;;;;;22.20;14.73;;;13.00;99.90;;;;;;5018503;28;20044;-81
2023/05/11 03:29:26;;;;;;;20.55;14.70;;;12.70;99.90;;;;;;5021736;28;20029;-81
2023/05/11 03:31:55;;;;;;;20.73;14.70;;;12.60;99.90;;;;;;5020236;28;20066;-81
2023/05/11 03:34:21;;;;;;;25.70;15.77;;;12.30;99.90;;;;;;5016455;28;20132;-81
2023/05/11 03:36:49;;;;;;;21.27;14.63;;;12.30;99.90;;;;;;5048188;28;20044;-81
2023/05/11 03:39:16;;;;;;;23.40;15.30;;;12.40;99.90;;;;;;5011837;28;20037;-81
2023/05/11 03:41:45;;;;;;;23.40;15.20;;;12.50;99.90;;;;;;5033166;28;20519;-81
2023/05/11 03:44:15;;;;;;;22.92;16.23;;;13.40;99.90;;;;;;5053191;28;20044;-81
2023/05/11 03:46:42;;;;;;;23.73;16.05;;;12.40;99.90;;;;;;5018678;28;20045;-81
2023/05/11 03:49:08;;;;;;;25.23;15.75;;;12.30;99.90;;;;;;5035098;28;20420;-81
2023/05/11 03:51:34;;;;;;;26.25;16.17;;;12.40;99.90;;;;;;5016462;28;20080;-81
2023/05/11 03:54:00;;;;;;;26.13;17.15;;;12.40;99.90;;;;;;5029942;28;20025;-81
2023/05/11 03:56:26;;;;;;;26.60;16.80;;;12.40;99.90;;;;;;5035117;28;20037;-81
2023/05/11 03:58:52;;;;;;;27.98;17.08;;;13.30;99.90;;;;;;5052108;28;20029;-81
2023/05/11 04:01:18;;;;;;;25.33;16.48;;;12.10;99.90;;;;;;5034601;28;20048;-81
2023/05/11 04:03:51;;;;;;;26.00;17.25;;;12.40;99.90;;;;;;5036087;28;20029;-81
2023/05/11 04:06:18;;;;;;;26.17;17.17;;;12.40;99.90;;;;;;5028507;28;20504;-81
2023/05/11 04:08:44;;;;;;;24.75;16.52;;;12.40;99.90;;;;;;5032965;28;20037;-81
2023/05/11 04:11:10;;;;;;;24.33;16.45;;;12.40;99.90;;;;;;5018104;28;20071;-83
2023/05/11 04:13:36;;;;;;;25.67;17.05;;;12.50;99.90;;;;;;5019260;28;20072;-81
2023/05/11 04:16:02;;;;;;;25.63;17.23;;;12.50;99.90;;;;;;5046411;28;20044;-81
2023/05/11 04:18:28;;;;;;;22.90;15.18;;;12.40;99.90;;;;;;5051938;28;20076;-81
2023/05/11 04:20:54;;;;;;;23.42;14.85;;;12.50;99.90;;;;;;5054136;28;20378;-81
2023/05/11 04:23:20;;;;;;;24.20;15.82;;;13.50;99.90;;;;;;5028959;28;20049;-81
2023/05/11 04:25:45;;;;;;;22.10;15.40;;;12.50;99.90;;;;;;5031460;28;20045;-80
2023/05/11 04:28:11;;;;;;;23.38;15.68;;;12.40;99.90;;;;;;5036714;28;20043;-81
2023/05/11 04:30:37;;;;;;;25.15;15.13;;;12.50;99.90;;;;;;5055103;28;20037;-81
2023/05/11 04:33:02;;;;;;;21.98;15.32;;;13.30;99.90;;;;;;5046437;28;20492;-81
2023/05/11 04:35:28;;;;;;;25.92;16.58;;;13.00;99.90;;;;;;5054223;28;20053;-81
2023/05/11 04:37:53;;;;;;;23.58;15.70;;;12.50;99.90;;;;;;5020525;28;20041;-81
2023/05/11 04:40:19;;;;;;;22.70;15.55;;;12.50;99.90;;;;;;5055417;28;20481;-81
2023/05/11 04:42:44;;;;;;;25.45;16.75;;;12.60;99.90;;;;;;5036545;28;20036;-81
2023/05/11 04:45:10;;;;;;;25.85;16.27;;;13.20;99.90;;;;;;5018224;28;20079;-81
2023/05/11 04:47:36;;;;;;;24.80;15.43;;;12.50;99.90;;;;;;5035280;28;20120;-79
2023/05/11 04:50:02;;;;;;;23.83;16.40;;;12.10;99.90;;;;;;5016958;28;20070;-81
2023/05/11 04:52:28;;;;;;;26.25;16.20;;;12.60;99.90;;;;;;5052418;28;20248;-81
2023/05/11 04:54:53;;;;;;;27.52;16.17;;;12.70;99.90;;;;;;5014515;28;20033;-81
2023/05/11 04:57:19;;;;;;;23.73;15.05;;;12.60;99.90;;;;;;5044472;28;20041;-81
2023/05/11 04:59:44;;;;;;;26.27;15.73;;;12.60;99.90;;;;;;5016399;28;20044;-81
2023/05/11 05:02:10;;;;;;;25.30;16.30;;;12.60;99.90;;;;;;5035089;28;20121;-82
2023/05/11 05:04:35;;;;;;;27.42;16.67;;;12.60;99.90;;;;;;5033712;28;20488;-82
2023/05/11 05:07:01;;;;;;;25.95;16.38;;;12.60;99.90;;;;;;5028296;28;20091;-81
2023/05/11 05:09:27;;;;;;;24.65;15.75;;;13.60;99.90;;;;;;5050328;28;20037;-82
2023/05/11 05:11:53;;;;;;;25.33;16.08;;;13.50;99.90;;;;;;5030161;28;20052;-83
2023/05/11 05:14:19;;;;;;;26.75;16.67;;;13.40;99.90;;;;;;5031820;28;20048;-81
2023/05/11 05:16:44;;;;;;;25.23;16.42;;;13.80;99.90;;;;;;5033703;28;20052;-82
2023/05/11 05:19:11;;;;;;;27.35;17.50;;;12.80;99.90;;;;;;5049951;28;20480;-82
2023/05/11 05:21:37;;;;;;;27.92;16.98;;;12.70;99.90;;;;;;5017421;28;20037;-81
2023/05/11 05:24:05;;;;;;;27.65;17.42;;;12.80;99.90;;;;;;5017701;28;20104;-82
2023/05/11 05:26:30;;;;;;;29.50;18.13;;;12.80;99.90;;;;;;5017555;28;20041;-81
2023/05/11 05:28:56;;;;;;;32.20;18.50;;;12.80;99.90;;;;;;5050134;28;20119;-81
2023/05/11 05:31:21;;;;;;;30.10;18.17;;;13.00;99.90;;;;;;5014176;28;20045;-80
2023/05/11 05:33:47;;;;;;;32.17;19.50;;;12.30;99.90;;;;;;5030989;28;20032;-81
2023/05/11 05:36:12;;;;;;;31.08;19.40;;;12.70;99.90;;;;;;5060802;28;20497;-80
2023/05/11 05:38:38;;;;;;;36.63;20.10;;;12.70;99.90;;;;;;5044509;28;20049;-80
2023/05/11 05:41:04;;;;;;;34.13;20.17;;;13.70;99.90;;;;;;5022704;28;20476;-79
2023/05/11 05:43:29;;;;;;;36.05;20.38;;;12.70;99.90;;;;;;5019672;28;20040;-80
2023/05/11 05:45:55;;;;;;;33.97;19.60;;;12.70;99.90;;;;;;5040362;28;20029;-80
2023/05/11 05:48:21;;;;;;;34.85;20.05;;;13.00;99.90;;;;;;5060508;28;20037;-80
2023/05/11 05:50:46;;;;;;;33.00;19.85;;;12.70;99.90;;;;;;5040615;28;20045;-81
2023/05/11 05:53:12;;;;;;;32.67;19.58;;;12.70;99.90;;;;;;5042748;28;20041;-79
2023/05/11 05:55:37;;;;;;;36.30;19.75;;;12.70;99.90;;;;;;5059867;28;20142;-79
2023/05/11 05:58:03;;;;;;;38.25;20.13;;;13.10;99.90;;;;;;5048100;28;20527;-78
2023/05/11 06:00:29;;;;;;;33.55;19.38;;;12.60;99.90;;;;;;5017913;28;20042;-78
2023/05/11 06:02:54;;;;;;;34.13;20.10;;;12.60;99.90;;;;;;5050770;28;20455;-78
2023/05/11 06:05:20;;;;;;;33.85;17.73;;;12.60;99.90;;;;;;5021923;28;20072;-78
2023/05/11 06:07:45;;;;;;;33.38;19.00;;;12.60;99.90;;;;;;5039547;28;20044;-79
2023/05/11 06:10:14;;;;;;;30.75;18.15;;;12.50;99.90;;;;;;5039621;28;20069;-79
2023/05/11 06:12:39;;;;;;;31.67;18.08;;;12.50;99.90;;;;;;5038167;28;20041;-79
2023/05/11 06:15:06;;;;;;;32.17;17.88;;;12.50;99.90;;;;;;5017572;28;20044;-79
2023/05/11 06:17:32;;;;;;;30.65;18.30;;;12.50;99.90;;;;;;5011993;28;20045;-79
2023/05/11 06:19:57;;;;;;;32.10;18.08;;;12.50;99.90;;;;;;5030073;28;20639;-79
2023/05/11 06:22:23;;;;;;;31.35;17.77;;;12.50;99.90;;;;;;5036428;28;20053;-79
2023/05/11 06:24:49;;;;;;;30.35;16.98;;;12.50;99.90;;;;;;5018400;28;20048;-78
2023/05/11 06:27:14;;;;;;;26.40;16.45;;;12.60;99.90;;;;;;5040748;28;20493;-78
2023/05/11 06:29:41;;;;;;;27.45;15.70;;;13.00;99.90;;;;;;5022296;28;20037;-78
2023/05/11 06:32:06;;;;;;;22.63;13.55;;;12.50;99.90;;;;;;5053964;28;20037;-77
2023/05/11 06:34:32;;;;;;;23.75;13.27;;;12.60;99.90;;;;;;5050939;28;20374;-78
2023/05/11 06:36:58;;;;;;;22.80;13.00;;;12.60;99.90;;;;;;5036055;28;20033;-78
2023/05/11 06:39:24;;;;;;;22.30;13.02;;;12.50;99.90;;;;;;5040360;28;20033;-79
2023/05/11 06:41:53;;;;;;;26.15;14.00;;;12.50;99.90;;;;;;5029759;28;20118;-78
2023/05/11 06:44:18;;;;;;;23.92;13.50;;;12.50;99.90;;;;;;5020465;28;20389;-77
2023/05/11 06:46:44;;;;;;;21.83;12.10;;;12.50;99.90;;;;;;5037085;28;20057;-78
2023/05/11 06:49:10;;;;;;;21.38;12.35;;;13.20;99.90;;;;;;5037574;28;20047;-78
2023/05/11 06:51:36;;;;;;;21.35;12.30;;;12.50;99.90;;;;;;5018976;28;20406;-78
2023/05/11 06:54:02;;;;;;;19.67;11.85;;;12.50;99.90;;;;;;5019469;28;20037;-78
2023/05/11 06:56:28;;;;;;;19.15;11.07;;;12.60;99.90;;;;;;5035739;28;20436;-78
2023/05/11 06:58:54;;;;;;;19.52;11.80;;;12.60;99.90;;;;;;5037913;28;20116;-78
2023/05/11 07:01:19;;;;;;;18.95;10.95;;;12.50;99.90;;;;;;5035061;28;20622;-78
2023/05/11 07:03:47;;;;;;;20.95;11.13;;;12.50;99.90;;;;;;5035628;28;20496;-78
2023/05/11 07:06:16;;;;;;;20.30;11.10;;;12.80;99.90;;;;;;5036471;28;20044;-78
2023/05/11 07:08:42;;;;;;;17.70;10.10;;;12.50;99.90;;;;;;5036916;28;20045;-77
2023/05/11 07:11:07;;;;;;;19.00;11.07;;;12.70;99.90;;;;;;5053308;28;20405;-77
2023/05/11 07:13:34;;;;;;;17.95;9.90;;;12.50;99.90;;;;;;5018000;28;20373;-77
2023/05/11 07:16:00;;;;;;;18.50;9.82;;;13.10;99.90;;;;;;5028760;28;20511;-78
2023/05/11 07:18:25;;;;;;;16.90;9.40;;;12.40;99.90;;;;;;5016882;28;20041;-77
2023/05/11 07:20:54;;;;;;;14.20;8.43;;;12.50;99.90;;;;;;5038038;28;20037;-78
2023/05/11 07:23:20;;;;;;;15.02;8.32;;;12.50;99.90;;;;;;5038628;28;20040;-77
2023/05/11 07:25:45;;;;;;;12.48;7.28;;;12.50;99.90;;;;;;5040616;28;20032;-77
2023/05/11 07:28:11;;;;;;;11.57;6.15;;;12.50;99.90;;;;;;5028855;28;20429;-77
2023/05/11 07:30:36;;;;;;;9.23;5.57;;;12.50;99.90;;;;;;5039880;28;20045;-77
2023/05/11 07:33:02;;;;;;;9.85;5.80;;;12.60;99.90;;;;;;5028631;28;20527;-78
2023/05/11 07:35:28;;;;;;;9.10;5.13;;;12.60;99.90;;;;;;5029320;28;20044;-78
2023/05/11 07:37:54;;;;;;;8.68;4.35;;;12.70;99.90;;;;;;5031374;28;20124;-78
2023/05/11 07:40:20;;;;;;;7.38;4.03;;;12.70;99.90;;;;;;5018010;28;20079;-79
2023/05/11 07:42:45;;;;;;;6.78;3.20;;;13.20;99.90;;;;;;5033675;28;20056;-79
2023/05/11 07:45:11;;;;;;;5.18;3.10;;;12.80;99.90;;;;;;5017123;28;20917;-79
2023/05/11 07:47:36;;;;;;;5.45;3.15;;;13.50;99.90;;;;;;5035294;28;20092;-79
2023/05/11 07:50:03;;;;;;;6.25;3.22;;;12.90;99.90;;;;;;5034014;28;20111;-79
2023/05/11 07:52:29;;;;;;;5.72;3.08;;;13.00;99.90;;;;;;5019278;28;20454;-79
2023/05/11 07:54:55;;;;;;;7.43;3.20;;;13.10;99.90;;;;;;5034281;28;20040;-79
2023/05/11 07:57:20;;;;;;;6.18;3.22;;;13.10;99.90;;;;;;5035176;28;20501;-79
2023/05/11 07:59:46;;;;;;;5.20;3.30;;;13.60;99.90;;;;;;5035238;28;20033;-79
2023/05/11 08:02:13;;;;;;;6.53;3.55;;;13.20;99.90;;;;;;5018513;28;20506;-79
2023/05/11 08:04:39;;;;;;;9.05;3.90;;;14.20;99.90;;;;;;5042219;28;20515;-79
2023/05/11 08:07:05;;;;;;;6.25;3.42;;;14.00;99.90;;;;;;5018317;28;20059;-79
2023/05/11 08:09:31;;;;;;;7.85;3.97;;;13.30;99.90;;;;;;5018082;28;20580;-79
2023/05/11 08:11:56;;;;;;;6.93;4.10;;;13.70;99.90;;;;;;5031636;28;20032;-79
2023/05/11 08:14:23;;;;;;;7.80;4.72;;;13.60;99.90;;;;;;5019510;28;20037;-79
2023/05/11 08:16:49;;;;;;;9.70;4.38;;;13.40;99.90;;;;;;5019558;28;20047;-78
2023/05/11 08:19:15;;;;;;;7.88;4.53;;;13.50;99.90;;;;;;5035156;28;20040;-79
2023/05/11 08:21:41;;;;;;;8.32;4.18;;;13.50;99.90;;;;;;5036178;28;20041;-79
2023/05/11 08:24:07;;;;;;;7.75;4.65;;;13.60;99.90;;;;;;5036911;28;20477;-79
2023/05/11 08:26:33;;;;;;;8.32;4.80;;;13.60;99.90;;;;;;5033250;28;20045;-79
2023/05/11 08:28:59;;;;;;;7.30;4.22;;;14.10;99.90;;;;;;5021114;28;20107;-80
2023/05/11 08:31:24;;;;;;;7.57;4.88;;;14.60;99.90;;;;;;5055557;28;20040;-80
2023/05/11 08:33:52;;;;;;;9.38;4.53;;;13.80;99.90;;;;;;5038089;28;20060;-80
2023/05/11 08:36:18;;;;;;;7.45;4.00;;;13.80;99.90;;;;;;5038880;28;20044;-80
2023/05/11 08:38:43;;;;;;;7.88;4.78;;;14.00;99.90;;;;;;5022827;28;20033;-79
2023/05/11 08:41:11;;;;;;;8.57;5.35;;;14.40;99.90;;;;;;5023245;28;20040;-80
2023/05/11 08:43:39;;;;;;;8.10;5.53;;;15.00;99.90;;;;;;5055882;28;20120;-80
2023/05/11 08:46:06;;;;;;;9.65;5.85;;;14.40;99.90;;;;;;5039877;28;20051;-80
2023/05/11 08:48:32;;;;;;;9.63;5.95;;;14.20;99.90;;;;;;5056499;28;20378;-80
2023/05/11 08:50:59;;;;;;;7.78;5.32;;;14.40;99.90;;;;;;5058385;28;20049;-80
2023/05/11 08:53:24;;;;;;;9.60;5.47;;;14.60;99.90;;;;;;5024756;28;20179;-80
2023/05/11 08:55:51;;;;;;;7.28;5.00;;;15.40;99.90;;;;;;5023862;28;20508;-80
2023/05/11 08:58:21;;;;;;;8.90;4.72;;;15.00;99.90;;;;;;5060282;28;20078;-80
2023/05/11 09:00:48;;;;;;;6.70;4.57;;;15.00;99.90;;;;;;5036996;28;20111;-81
2023/05/11 09:03:16;;;;;;;7.35;5.30;;;15.10;99.90;;;;;;5055816;28;20036;-80
2023/05/11 09:05:45;;;;;;;7.00;4.30;;;15.30;99.90;;;;;;5062945;28;20029;-80
2023/05/11 09:08:12;;;;;;;9.07;4.07;;;16.30;99.90;;;;;;5069301;28;20040;-80
2023/05/11 09:10:38;;;;;;;6.22;4.20;;;15.70;99.90;;;;;;5026255;28;20045;-80
2023/05/11 09:13:04;;;;;;;6.00;4.10;;;15.60;99.90;;;;;;5063827;28;20033;-80
2023/05/11 09:15:30;;;;;;;5.30;3.80;;;16.10;99.90;;;;;;5077379;22;20041;-65
2023/05/11 09:17:57;;;;;;;6.20;3.78;;;16.30;99.90;;;;;;5013353;28;20553;-63
2023/05/11 09:20:31;;;;;;;6.20;3.80;;;15.90;99.90;;;;;;5048998;28;20043;-63
2023/05/11 09:22:57;;;;;;;11.40;3.75;;;16.10;99.90;;;;;;5042181;28;20083;-63
2023/05/11 09:25:24;;;;;;;6.43;3.63;;;16.40;99.90;;;;;;5030127;28;20064;-63
2023/05/11 09:27:50;;;;;;;4.85;3.13;;;16.70;99.90;;;;;;5031786;28;20437;-63
2023/05/11 09:30:21;;;;;;;4.50;2.90;;;17.20;99.90;;;;;;5032095;28;20371;-63
2023/05/11 09:32:53;;;;;;;4.82;2.65;;;17.50;99.90;;;;;;5049356;28;20041;-63
2023/05/11 09:35:25;;;;;;;4.20;2.90;;;17.80;99.90;;;;;;5031415;28;20505;-63
2023/05/11 09:38:03;;;;;;;4.43;2.83;;;18.00;99.90;;;;;;5049493;28;20495;-63
2023/05/11 09:40:30;;;;;;;4.28;2.72;;;18.10;99.90;;;;;;5053982;28;20124;-63
2023/05/11 09:42:57;;;;;;;3.65;2.58;;;18.10;99.90;;;;;;5051019;28;20083;-62
2023/05/11 09:45:37;;;;;;;4.53;3.05;;;18.10;99.90;;;;;;5054279;28;20068;-62
2023/05/11 09:48:04;;;;;;;6.25;3.08;;;18.00;99.90;;;;;;5029815;28;20044;-63
2023/05/11 09:50:34;;;;;;;5.30;2.90;;;17.90;99.90;;;;;;5032031;28;20045;-63
2023/05/11 09:53:00;;;;;;;3.60;2.53;;;17.90;99.90;;;;;;5009567;28;20475;-62
2023/05/11 09:55:26;;;;;;;3.97;2.45;;;17.80;99.90;;;;;;5031343;28;20048;-62
2023/05/11 09:57:54;;;;;;;2.90;2.03;;;17.70;99.90;;;;;;5031380;28;20043;-62
2023/05/11 10:00:20;;;;;;;3.90;2.20;;;17.70;99.90;;;;;;5053157;28;20521;-62
2023/05/11 10:02:57;;;;;;;3.33;2.00;;;17.60;99.90;;;;;;5049904;28;20128;-62
2023/05/11 10:05:23;;;;;;;2.72;2.00;;;17.70;99.90;;;;;;5049115;28;20530;-62
2023/05/11 10:07:57;;;;;;;3.95;1.88;;;17.70;99.90;;;;;;5030898;28;20077;-62
2023/05/11 10:10:24;;;;;;;3.03;2.00;;;17.80;99.90;;;;;;5049357;28;20514;-62
2023/05/11 10:12:51;;;;;;;2.50;1.70;;;17.90;99.90;;;;;;5049327;28;20052;-62
2023/05/11 10:15:20;;;;;;;2.42;1.77;;;17.70;99.90;;;;;;5032336;28;20041;-62
2023/05/11 10:17:46;;;;;;;2.83;1.67;;;17.70;99.90;;;;;;5043007;28;20103;-62
2023/05/11 10:20:12;;;;;;;2.40;1.80;;;17.60;99.90;;;;;;5049537;28;20072;-62
2023/05/11 10:22:38;;;;;;;3.58;1.92;;;17.50;99.90;;;;;;5046514;28;20037;-62
2023/05/11 10:25:06;;;;;;;3.67;1.90;;;17.40;99.90;;;;;;5049885;28;20036;-62
2023/05/11 10:27:32;;;;;;;2.20;1.80;;;17.40;99.90;;;;;;5047076;28;20442;-62
2023/05/11 10:29:58;;;;;;;3.65;2.00;;;17.30;99.90;;;;;;5020567;28;20037;-62
2023/05/11 10:32:24;;;;;;;3.35;2.03;;;17.30;99.90;;;;;;5047144;28;20045;-62
2023/05/11 10:34:50;;;;;;;2.95;1.75;;;17.30;99.90;;;;;;5049044;28;20492;-62
2023/05/11 10:37:16;;;;;;;2.05;1.70;;;17.30;99.90;;;;;;5039427;28;20083;-62
2023/05/11 10:39:44;;;;;;;2.50;1.90;;;17.30;99.90;;;;;;5047559;28;20583;-62
2023/05/11 10:42:44;;;;;;;2.13;1.80;;;17.40;99.90;;;;;;5044478;28;20042;-62
2023/05/11 10:45:30;;;;;;;3.03;1.90;;;17.50;99.90;;;;;;4997165;28;20132;-62
2023/05/11 10:48:26;;;;;;;1.98;1.40;;;17.50;99.90;;;;;;5029392;28;20041;-62
2023/05/11 10:51:11;;;;;;;2.42;1.50;;;17.80;99.90;;;;;;5050631;28;20423;-62
2023/05/11 10:53:57;;;;;;;1.45;1.10;;;18.10;99.90;;;;;;5050100;28;20384;-62
2023/05/11 10:56:59;;;;;;;1.27;1.15;;;17.90;99.90;;;;;;5050146;28;20410;-62
2023/05/11 10:59:56;;;;;;;3.10;1.10;;;17.80;99.90;;;;;;5032079;28;20044;-62
2023/05/11 11:02:23;;;;;;;2.35;1.10;;;17.60;99.90;;;;;;5024355;28;20049;-62
2023/05/11 11:04:50;;;;;;;3.70;1.10;;;17.60;99.90;;;;;;5046975;28;20069;-62
2023/05/11 11:07:18;;;;;;;2.47;1.10;;;17.50;99.90;;;;;;5050838;28;20097;-62
2023/05/11 11:09:59;;;;;;;1.15;0.90;;;17.50;99.90;;;;;;5038140;28;20055;-64
2023/05/11 11:12:27;;;;;;;1.90;1.00;;;17.40;99.90;;;;;;5031387;28;20548;-62
2023/05/11 11:15:00;;;;;;;1.13;0.90;;;17.40;99.90;;;;;;5033797;28;20055;-62
2023/05/11 11:17:30;;;;;;;1.30;1.10;;;17.50;99.90;;;;;;5029627;28;20052;-62
2023/05/11 11:20:00;;;;;;;1.30;1.00;;;17.40;99.90;;;;;;5048935;28;20041;-62
2023/05/11 11:22:35;;;;;;;1.30;1.20;;;17.50;99.90;;;;;;5027651;28;20048;-62
2023/05/11 11:25:04;;;;;;;1.10;1.00;;;17.50;99.90;;;;;;5044748;28;20036;-62
2023/05/11 11:27:39;;;;;;;2.50;1.50;;;17.50;99.90;;;;;;5029397;28;20041;-62
2023/05/11 11:30:25;;;;;;;1.10;1.00;;;17.50;99.90;;;;;;5027117;28;20036;-62
2023/05/11 11:33:06;;;;;;;1.63;1.27;;;17.50;99.90;;;;;;5050834;28;20033;-62
2023/05/11 11:35:41;;;;;;;4.57;1.48;;;17.50;99.90;;;;;;5026562;28;20574;-62
2023/05/11 11:38:15;;;;;;;1.20;1.10;;;17.50;99.90;;;;;;5043700;28;20398;-62
2023/05/11 11:40:42;;;;;;;1.52;1.08;;;17.50;99.90;;;;;;5031921;28;20060;-62
2023/05/11 11:43:18;;;;;;;1.15;0.93;;;17.50;99.90;;;;;;5033922;28;20052;-62
2023/05/11 11:45:58;;;;;;;2.13;1.00;;;17.40;99.90;;;;;;5025471;28;20041;-62
2023/05/11 11:48:34;;;;;;;1.20;1.10;;;17.40;99.90;;;;;;5048733;28;20037;-62
2023/05/11 11:51:02;;;;;;;1.88;1.58;;;17.40;99.90;;;;;;5025640;28;20490;-62
2023/05/11 11:53:36;;;;;;;3.25;2.03;;;17.40;99.90;;;;;;5031764;28;20040;-62
2023/05/11 11:56:28;;;;;;;3.85;2.38;;;17.40;99.90;;;;;;5044368;28;20039;-62
2023/05/11 11:59:03;;;;;;;2.85;2.20;;;17.70;99.90;;;;;;5030555;28;20037;-62
2023/05/11 12:01:34;;;;;;;3.90;2.58;;;17.60;99.90;;;;;;5050818;28;20103;-62
2023/05/11 12:04:03;;;;;;;3.50;2.47;;;17.90;99.90;;;;;;5051084;28;20032;-62
2023/05/11 12:06:36;;;;;;;3.50;2.63;;;17.80;99.90;;;;;;5046883;28;20120;-62
2023/05/11 12:09:03;;;;;;;4.43;3.03;;;17.80;99.90;;;;;;5031132;28;20043;-62
2023/05/11 12:11:29;;;;;;;4.07;3.03;;;17.80;99.90;;;;;;5050076;28;20123;-62
2023/05/11 12:13:56;;;;;;;5.50;3.58;;;18.10;99.90;;;;;;5043911;28;20040;-62
2023/05/11 12:16:22;;;;;;;5.30;3.55;;;18.10;99.90;;;;;;5043377;28;20574;-63
2023/05/11 12:19:06;;;;;;;6.60;4.68;;;18.10;99.90;;;;;;5030462;28;20114;-62
2023/05/11 12:21:31;;;;;;;7.03;4.57;;;18.20;99.90;;;;;;5051375;28;20528;-62
2023/05/11 12:23:59;;;;;;;7.38;4.95;;;18.20;99.90;;;;;;5026980;28;20037;-62
2023/05/11 12:26:26;;;;;;;7.25;5.50;;;18.30;99.90;;;;;;5031877;28;20511;-62
2023/05/11 12:29:11;;;;;;;7.05;5.13;;;18.30;99.90;;;;;;5052800;28;20040;-62
2023/05/11 12:31:39;;;;;;;7.82;5.63;;;18.40;99.90;;;;;;5050461;28;20116;-62
2023/05/11 12:34:05;;;;;;;8.70;5.68;;;18.30;99.90;;;;;;5033120;28;20128;-62
2023/05/11 12:36:31;;;;;;;7.50;5.40;;;18.20;99.90;;;;;;5045647;28;20033;-62
2023/05/11 12:38:58;;;;;;;7.75;5.85;;;18.30;99.90;;;;;;5026596;28;20076;-62
2023/05/11 12:41:24;;;;;;;8.05;6.10;;;18.30;99.90;;;;;;5024101;28;20037;-62